createdAt,value
2019-05-09T00:00:48.377Z,8.67
2019-05-09T00:01:48.346Z,8.64
2019-05-09T00:02:48.318Z,8.66
2019-05-09T00:03:48.306Z,8.71
2019-05-09T00:04:48.301Z,8.67
2019-05-09T00:05:48.493Z,8.73
2019-05-09T00:06:48.344Z,8.70
2019-05-09T00:07:48.264Z,8.58
2019-05-09T00:08:48.262Z,8.63
2019-05-09T00:09:48.245Z,8.66
2019-05-09T00:10:48.285Z,8.70
2019-05-09T00:11:48.233Z,8.56
2019-05-09T00:12:48.211Z,8.58
2019-05-09T00:13:48.262Z,8.67
2019-05-09T00:14:48.201Z,8.73
2019-05-09T00:15:48.176Z,8.67
2019-05-09T00:16:48.197Z,8.60
2019-05-09T00:17:48.163Z,8.67
2019-05-09T00:18:48.156Z,8.60
2019-05-09T00:19:48.142Z,8.71
2019-05-09T00:20:48.173Z,8.71
2019-05-09T00:21:48.150Z,8.64
2019-05-09T00:22:48.107Z,8.64
2019-05-09T00:23:48.092Z,8.61
2019-05-09T00:24:48.084Z,8.56
2019-05-09T00:25:48.075Z,8.61
2019-05-09T00:26:48.127Z,8.58
2019-05-09T00:27:48.057Z,8.63
2019-05-09T00:28:48.055Z,8.53
2019-05-09T00:29:48.029Z,8.60
2019-05-09T00:30:48.012Z,8.60
2019-05-09T00:31:48.026Z,8.53
2019-05-09T00:32:48.081Z,8.63
2019-05-09T00:33:48.330Z,8.55
2019-05-09T00:34:47.992Z,8.61
2019-05-09T00:35:47.975Z,8.53
2019-05-09T00:36:48.078Z,8.61
2019-05-09T00:37:47.949Z,8.56
2019-05-09T00:38:47.962Z,8.49
2019-05-09T00:39:47.921Z,8.49
2019-05-09T00:40:57.792Z,8.45
2019-05-09T00:41:48.923Z,8.42
2019-05-09T00:42:47.894Z,8.42
2019-05-09T00:43:47.881Z,8.41
2019-05-09T00:44:47.918Z,8.51
2019-05-09T00:45:47.878Z,8.48
2019-05-09T00:46:47.944Z,8.36
2019-05-09T00:47:47.853Z,8.41
2019-05-09T00:48:47.868Z,8.38
2019-05-09T00:49:47.819Z,8.31
2019-05-09T00:50:47.815Z,8.34
2019-05-09T00:51:47.880Z,8.38
2019-05-09T00:52:47.792Z,8.33
2019-05-09T00:53:47.778Z,8.24
2019-05-09T00:54:47.769Z,8.28
2019-05-09T00:55:47.750Z,8.24
2019-05-09T00:56:47.856Z,8.23
2019-05-09T00:57:47.726Z,8.24
2019-05-09T00:58:47.725Z,8.16
2019-05-09T00:59:47.754Z,8.27
2019-05-09T01:00:47.701Z,8.24
2019-05-09T01:01:47.686Z,8.16
2019-05-09T01:02:47.719Z,8.16
2019-05-09T01:03:47.685Z,8.12
2019-05-09T01:04:47.650Z,8.13
2019-05-09T01:05:47.686Z,8.19
2019-05-09T01:06:47.648Z,8.12
2019-05-09T01:07:47.864Z,8.16
2019-05-09T01:08:47.633Z,8.16
2019-05-09T01:09:47.633Z,8.15
2019-05-09T01:10:47.589Z,8.13
2019-05-09T01:11:47.592Z,8.19
2019-05-09T01:12:47.568Z,8.05
2019-05-09T01:13:47.589Z,8.09
2019-05-09T01:14:47.567Z,8.09
2019-05-09T01:15:47.595Z,8.06
2019-05-09T01:16:47.528Z,8.03
2019-05-09T01:17:47.545Z,8.03
2019-05-09T01:18:47.507Z,8.09
2019-05-09T01:19:47.489Z,8.05
2019-05-09T01:20:47.488Z,8.00
2019-05-09T01:21:47.505Z,8.03
2019-05-09T01:22:47.494Z,8.01
2019-05-09T01:23:47.448Z,8.00
2019-05-09T01:24:47.438Z,7.97
2019-05-09T01:25:47.426Z,7.98
2019-05-09T01:26:47.423Z,7.94
2019-05-09T01:27:47.479Z,7.97
2019-05-09T01:28:47.608Z,7.88
2019-05-09T01:29:48.306Z,7.83
2019-05-09T01:30:47.386Z,7.87
2019-05-09T01:31:47.374Z,7.87
2019-05-09T01:32:47.372Z,7.83
2019-05-09T01:33:47.375Z,7.85
2019-05-09T01:34:47.339Z,7.83
2019-05-09T01:35:47.328Z,7.77
2019-05-09T01:36:47.316Z,7.83
2019-05-09T01:37:47.311Z,7.87
2019-05-09T01:38:47.287Z,7.83
2019-05-09T01:39:47.305Z,7.87
2019-05-09T01:40:47.269Z,7.87
2019-05-09T01:41:47.257Z,7.85
2019-05-09T01:42:47.264Z,7.83
2019-05-09T01:43:47.240Z,7.87
2019-05-09T01:44:47.229Z,7.87
2019-05-09T01:45:47.291Z,7.82
2019-05-09T01:46:47.242Z,7.80
2019-05-09T01:47:47.216Z,7.82
2019-05-09T01:48:47.181Z,7.83
2019-05-09T01:49:47.220Z,7.80
2019-05-09T01:50:47.161Z,7.80
2019-05-09T01:51:47.217Z,7.85
2019-05-09T01:52:47.230Z,7.77
2019-05-09T01:53:47.166Z,7.87
2019-05-09T01:54:47.121Z,7.75
2019-05-09T01:55:47.129Z,7.80
2019-05-09T01:56:47.092Z,7.80
2019-05-09T01:57:48.004Z,7.82
2019-05-09T01:58:47.080Z,7.77
2019-05-09T01:59:47.178Z,7.80
2019-05-09T02:00:47.055Z,7.76
2019-05-09T02:01:47.057Z,7.73
2019-05-09T02:02:47.035Z,7.75
2019-05-09T02:03:47.027Z,7.80
2019-05-09T02:04:47.009Z,7.80
2019-05-09T02:05:47.070Z,7.80
2019-05-09T02:06:46.985Z,7.80
2019-05-09T02:07:46.998Z,7.77
2019-05-09T02:08:46.965Z,7.76
2019-05-09T02:09:46.956Z,7.76
2019-05-09T02:10:47.146Z,7.83
2019-05-09T02:11:46.995Z,7.80
2019-05-09T02:12:46.927Z,7.76
2019-05-09T02:13:46.965Z,7.77
2019-05-09T02:14:46.908Z,7.79
2019-05-09T02:15:46.892Z,7.80
2019-05-09T02:16:46.882Z,7.85
2019-05-09T02:17:57.835Z,7.82
2019-05-09T02:18:47.904Z,7.83
2019-05-09T02:19:46.867Z,7.80
2019-05-09T02:20:46.859Z,7.83
2019-05-09T02:21:46.847Z,7.75
2019-05-09T02:22:46.844Z,7.80
2019-05-09T02:23:46.825Z,7.77
2019-05-09T02:24:46.796Z,7.80
2019-05-09T02:25:46.787Z,7.82
2019-05-09T02:26:46.783Z,7.82
2019-05-09T02:27:46.795Z,7.73
2019-05-09T02:28:46.796Z,7.77
2019-05-09T02:29:46.741Z,7.77
2019-05-09T02:30:46.732Z,7.73
2019-05-09T02:31:46.803Z,7.75
2019-05-09T02:32:46.731Z,7.67
2019-05-09T02:33:46.711Z,7.66
2019-05-09T02:34:46.754Z,7.67
2019-05-09T02:35:55.725Z,7.61
2019-05-09T02:36:49.644Z,7.67
2019-05-09T02:37:49.773Z,7.67
2019-05-09T02:38:48.658Z,7.67
2019-05-09T02:39:49.074Z,7.72
2019-05-09T02:40:48.634Z,7.77
2019-05-09T02:42:01.065Z,7.67
2019-05-09T02:42:48.970Z,7.63
2019-05-09T02:43:49.652Z,7.63
2019-05-09T02:44:49.241Z,7.73
2019-05-09T02:45:52.319Z,7.73
2019-05-09T02:46:49.222Z,7.70
2019-05-09T02:47:49.069Z,7.77
2019-05-09T02:48:49.561Z,7.72
2019-05-09T02:49:48.626Z,7.67
2019-05-09T02:50:48.503Z,7.70
2019-05-09T02:51:48.748Z,7.72
2019-05-09T02:52:48.742Z,7.73
2019-05-09T02:53:48.577Z,7.67
2019-05-09T02:54:49.711Z,7.72
2019-05-09T02:55:49.558Z,7.61
2019-05-09T02:56:49.165Z,7.63
2019-05-09T02:57:48.943Z,7.70
2019-05-09T02:58:48.550Z,7.57
2019-05-09T02:59:49.104Z,7.66
2019-05-09T03:00:48.205Z,7.63
2019-05-09T03:01:49.262Z,7.75
2019-05-09T03:02:48.738Z,7.69
2019-05-09T03:03:48.245Z,7.69
2019-05-09T03:04:48.848Z,7.73
2019-05-09T03:05:48.749Z,7.66
2019-05-09T03:06:49.106Z,7.58
2019-05-09T03:07:48.728Z,7.66
2019-05-09T03:08:49.128Z,7.67
2019-05-09T03:09:48.011Z,7.72
2019-05-09T03:10:48.952Z,7.63
2019-05-09T03:11:48.507Z,7.53
2019-05-09T03:12:49.812Z,7.63
2019-05-09T03:13:49.360Z,7.60
2019-05-09T03:14:48.751Z,7.54
2019-05-09T03:15:49.329Z,7.50
2019-05-09T03:16:49.242Z,7.50
2019-05-09T03:17:49.186Z,7.53
2019-05-09T03:18:49.091Z,7.53
2019-05-09T03:19:48.796Z,7.39
2019-05-09T03:20:48.970Z,7.48
2019-05-09T03:21:49.193Z,7.43
2019-05-09T03:22:48.612Z,7.48
2019-05-09T03:23:48.856Z,7.42
2019-05-09T03:24:48.537Z,7.40
2019-05-09T03:25:48.419Z,7.45
2019-05-09T03:26:49.270Z,7.42
2019-05-09T03:27:48.422Z,7.39
2019-05-09T03:28:48.980Z,7.40
2019-05-09T03:29:48.945Z,7.33
2019-05-09T03:30:49.815Z,7.38
2019-05-09T03:31:49.793Z,7.38
2019-05-09T03:32:48.899Z,7.33
2019-05-09T03:33:49.767Z,7.38
2019-05-09T03:34:47.788Z,7.31
2019-05-09T03:35:48.098Z,7.29
2019-05-09T03:36:47.685Z,7.24
2019-05-09T03:37:48.011Z,7.28
2019-05-09T03:38:47.552Z,7.21
2019-05-09T03:39:47.855Z,7.24
2019-05-09T03:40:47.645Z,7.20
2019-05-09T03:41:48.511Z,7.24
2019-05-09T03:42:45.970Z,7.28
2019-05-09T03:43:48.076Z,7.24
2019-05-09T03:44:47.733Z,7.14
2019-05-09T03:45:48.021Z,7.13
2019-05-09T03:46:47.622Z,7.14
2019-05-09T03:47:47.793Z,7.15
2019-05-09T03:48:47.831Z,7.15
2019-05-09T03:49:47.636Z,7.13
2019-05-09T03:50:45.917Z,7.15
2019-05-09T03:51:48.082Z,7.07
2019-05-09T03:52:47.778Z,7.14
2019-05-09T03:53:48.227Z,7.14
2019-05-09T03:54:47.731Z,7.15
2019-05-09T03:55:47.487Z,7.14
2019-05-09T03:56:47.825Z,7.05
2019-05-09T03:57:47.641Z,7.03
2019-05-09T03:58:47.450Z,7.00
2019-05-09T03:59:48.006Z,7.02
2019-05-09T04:00:47.856Z,7.07
2019-05-09T04:01:47.811Z,7.07
2019-05-09T04:02:47.510Z,7.00
2019-05-09T04:03:47.950Z,7.06
2019-05-09T04:04:47.571Z,7.02
2019-05-09T04:05:56.658Z,7.00
2019-05-09T04:06:47.992Z,6.97
2019-05-09T04:07:47.738Z,6.92
2019-05-09T04:08:48.011Z,7.00
2019-05-09T04:09:47.856Z,6.95
2019-05-09T04:10:46.974Z,6.88
2019-05-09T04:11:45.681Z,6.84
2019-05-09T04:12:53.848Z,7.00
2019-05-09T04:13:47.633Z,6.95
2019-05-09T04:14:47.925Z,6.95
2019-05-09T04:15:47.617Z,6.84
2019-05-09T04:16:45.689Z,6.89
2019-05-09T04:17:47.577Z,6.85
2019-05-09T04:18:47.877Z,6.89
2019-05-09T04:19:47.720Z,6.85
2019-05-09T04:20:45.572Z,7.00
2019-05-09T04:21:45.574Z,7.11
2019-05-09T04:22:45.527Z,7.02
2019-05-09T04:23:45.523Z,7.11
2019-05-09T04:24:47.423Z,7.02
2019-05-09T04:25:45.501Z,7.02
2019-05-09T04:26:45.536Z,7.17
2019-05-09T04:27:47.909Z,7.14
2019-05-09T04:28:47.238Z,7.11
2019-05-09T04:29:45.462Z,7.17
2019-05-09T04:30:47.718Z,7.13
2019-05-09T04:31:45.450Z,7.20
2019-05-09T04:32:45.448Z,7.20
2019-05-09T04:33:47.331Z,7.23
2019-05-09T04:34:47.306Z,7.23
2019-05-09T04:35:47.420Z,7.21
2019-05-09T04:36:45.494Z,7.25
2019-05-09T04:37:45.382Z,7.28
2019-05-09T04:38:47.218Z,7.23
2019-05-09T04:39:47.243Z,7.24
2019-05-09T04:40:46.117Z,7.35
2019-05-09T04:41:45.330Z,7.31
2019-05-09T04:42:47.030Z,7.39
2019-05-09T04:43:45.335Z,7.40
2019-05-09T04:44:49.876Z,7.39
2019-05-09T04:45:47.347Z,7.43
2019-05-09T04:46:45.323Z,7.39
2019-05-09T04:47:47.189Z,7.43
2019-05-09T04:48:47.514Z,7.45
2019-05-09T04:49:45.911Z,7.45
2019-05-09T04:50:45.233Z,7.38
2019-05-09T04:51:45.268Z,7.43
2019-05-09T04:52:47.386Z,7.45
2019-05-09T04:53:45.204Z,7.57
2019-05-09T04:54:45.192Z,7.53
2019-05-09T04:55:45.184Z,7.48
2019-05-09T04:56:47.290Z,7.48
2019-05-09T04:57:45.222Z,7.47
2019-05-09T04:58:45.151Z,7.66
2019-05-09T04:59:47.383Z,7.60
2019-05-09T05:00:45.135Z,7.53
2019-05-09T05:01:47.599Z,7.53
2019-05-09T05:02:45.103Z,7.53
2019-05-09T05:03:45.123Z,7.67
2019-05-09T05:04:45.085Z,7.57
2019-05-09T05:05:45.088Z,7.66
2019-05-09T05:06:45.069Z,7.61
2019-05-09T05:07:45.065Z,7.56
2019-05-09T05:08:45.042Z,7.72
2019-05-09T05:09:45.056Z,7.72
2019-05-09T05:10:45.043Z,7.63
2019-05-09T05:11:47.120Z,7.70
2019-05-09T05:12:45.000Z,7.69
2019-05-09T05:13:45.006Z,7.73
2019-05-09T05:14:45.000Z,7.69
2019-05-09T05:15:45.030Z,7.77
2019-05-09T05:16:44.965Z,7.83
2019-05-09T05:17:44.961Z,7.82
2019-05-09T05:18:44.976Z,7.87
2019-05-09T05:19:44.922Z,7.83
2019-05-09T05:20:44.915Z,7.95
2019-05-09T05:21:44.958Z,7.97
2019-05-09T05:22:44.892Z,8.00
2019-05-09T05:23:47.137Z,8.00
2019-05-09T05:24:44.867Z,8.00
2019-05-09T05:25:44.860Z,8.05
2019-05-09T05:26:44.853Z,8.05
2019-05-09T05:27:44.851Z,8.01
2019-05-09T05:28:44.837Z,7.97
2019-05-09T05:29:44.826Z,8.10
2019-05-09T05:30:44.802Z,8.16
2019-05-09T05:31:44.795Z,8.05
2019-05-09T05:32:44.796Z,8.12
2019-05-09T05:33:44.811Z,8.15
2019-05-09T05:34:44.759Z,8.10
2019-05-09T05:35:44.754Z,8.10
2019-05-09T05:36:44.734Z,8.15
2019-05-09T05:37:44.742Z,8.20
2019-05-09T05:38:44.720Z,8.24
2019-05-09T05:39:44.740Z,8.28
2019-05-09T05:40:46.538Z,8.28
2019-05-09T05:41:44.696Z,8.36
2019-05-09T05:42:44.729Z,8.41
2019-05-09T05:43:44.972Z,8.48
2019-05-09T05:44:44.653Z,8.49
2019-05-09T05:45:44.657Z,8.45
2019-05-09T05:46:48.306Z,8.49
2019-05-09T05:47:45.636Z,8.53
2019-05-09T05:48:44.616Z,8.53
2019-05-09T05:49:44.605Z,8.51
2019-05-09T05:50:44.609Z,8.51
2019-05-09T05:51:44.596Z,8.53
2019-05-09T05:52:44.567Z,8.55
2019-05-09T05:53:44.597Z,8.60
2019-05-09T05:54:44.542Z,8.60
2019-05-09T05:55:44.533Z,8.71
2019-05-09T05:56:44.523Z,8.70
2019-05-09T05:57:44.532Z,8.64
2019-05-09T05:58:44.523Z,8.63
2019-05-09T05:59:44.560Z,8.67
2019-05-09T06:00:44.489Z,8.64
2019-05-09T06:01:44.685Z,8.60
2019-05-09T06:02:44.457Z,8.58
2019-05-09T06:03:44.527Z,8.61
2019-05-09T06:04:44.486Z,8.64
2019-05-09T06:05:44.435Z,8.70
2019-05-09T06:06:44.414Z,8.64
2019-05-09T06:07:44.415Z,8.64
2019-05-09T06:08:44.411Z,8.70
2019-05-09T06:09:44.415Z,8.81
2019-05-09T06:10:44.375Z,8.81
2019-05-09T06:11:44.371Z,8.88
2019-05-09T06:12:44.349Z,8.88
2019-05-09T06:13:54.435Z,8.87
2019-05-09T06:14:45.341Z,8.87
2019-05-09T06:15:44.337Z,8.88
2019-05-09T06:16:44.348Z,8.87
2019-05-09T06:17:44.359Z,8.91
2019-05-09T06:18:44.290Z,8.82
2019-05-09T06:19:44.300Z,8.91
2019-05-09T06:20:45.834Z,9.00
2019-05-09T06:21:44.267Z,8.89
2019-05-09T06:22:44.267Z,8.87
2019-05-09T06:23:44.268Z,8.81
2019-05-09T06:24:44.234Z,8.88
2019-05-09T06:25:44.230Z,8.88
2019-05-09T06:26:44.202Z,8.85
2019-05-09T06:27:44.197Z,8.76
2019-05-09T06:28:44.224Z,8.82
2019-05-09T06:29:44.193Z,8.84
2019-05-09T06:30:44.174Z,9.00
2019-05-09T06:31:44.151Z,9.06
2019-05-09T06:32:44.143Z,9.11
2019-05-09T06:33:47.178Z,9.19
2019-05-09T06:34:47.568Z,9.18
2019-05-09T06:35:44.116Z,9.14
2019-05-09T06:36:44.097Z,9.18
2019-05-09T06:37:44.110Z,9.19
2019-05-09T06:38:44.163Z,9.14
2019-05-09T06:39:44.081Z,9.16
2019-05-09T06:40:44.082Z,9.10
2019-05-09T06:41:44.043Z,9.16
2019-05-09T06:42:44.038Z,9.19
2019-05-09T06:43:44.572Z,9.14
2019-05-09T06:44:44.058Z,9.22
2019-05-09T06:45:44.001Z,9.21
2019-05-09T06:46:43.985Z,9.28
2019-05-09T06:47:44.932Z,9.26
2019-05-09T06:48:43.973Z,9.26
2019-05-09T06:49:43.968Z,9.23
2019-05-09T06:50:43.944Z,9.23
2019-05-09T06:51:43.963Z,9.34
2019-05-09T06:52:43.931Z,9.31
2019-05-09T06:53:44.966Z,9.31
2019-05-09T06:54:44.058Z,9.32
2019-05-09T06:55:43.892Z,9.40
2019-05-09T06:56:43.886Z,9.46
2019-05-09T06:57:43.878Z,9.36
2019-05-09T06:58:43.866Z,9.41
2019-05-09T06:59:43.881Z,9.56
2019-05-09T07:00:43.906Z,9.48
2019-05-09T07:01:43.835Z,9.62
2019-05-09T07:02:43.820Z,9.58
2019-05-09T07:03:43.810Z,9.62
2019-05-09T07:04:44.128Z,9.59
2019-05-09T07:05:43.810Z,9.69
2019-05-09T07:06:43.779Z,9.83
2019-05-09T07:07:43.763Z,9.83
2019-05-09T07:08:43.750Z,9.95
2019-05-09T07:09:43.764Z,10.09
2019-05-09T07:10:43.764Z,10.19
2019-05-09T07:11:43.724Z,10.10
2019-05-09T07:12:43.733Z,9.89
2019-05-09T07:13:43.704Z,9.84
2019-05-09T07:14:43.715Z,10.01
2019-05-09T07:15:43.692Z,10.04
2019-05-09T07:16:43.666Z,10.19
2019-05-09T07:17:43.657Z,10.19
2019-05-09T07:18:43.708Z,10.31
2019-05-09T07:19:44.098Z,10.30
2019-05-09T07:20:43.636Z,10.48
2019-05-09T07:21:43.613Z,10.48
2019-05-09T07:22:43.613Z,10.54
2019-05-09T07:23:43.595Z,10.60
2019-05-09T07:24:43.610Z,10.59
2019-05-09T07:25:43.679Z,10.56
2019-05-09T07:26:43.560Z,10.53
2019-05-09T07:27:43.553Z,10.30
2019-05-09T07:28:43.538Z,10.51
2019-05-09T07:29:43.553Z,10.54
2019-05-09T07:30:43.545Z,10.57
2019-05-09T07:31:43.528Z,10.71
2019-05-09T07:32:43.503Z,10.61
2019-05-09T07:33:43.489Z,10.59
2019-05-09T07:34:43.474Z,10.60
2019-05-09T07:35:43.477Z,10.74
2019-05-09T07:36:43.450Z,10.79
2019-05-09T07:37:43.488Z,10.86
2019-05-09T07:38:43.427Z,10.96
2019-05-09T07:39:43.431Z,11.00
2019-05-09T07:40:43.418Z,10.96
2019-05-09T07:41:43.409Z,11.07
2019-05-09T07:42:43.392Z,11.10
2019-05-09T07:43:43.399Z,10.90
2019-05-09T07:44:48.354Z,10.84
2019-05-09T07:45:44.380Z,10.74
2019-05-09T07:46:43.552Z,10.67
2019-05-09T07:47:43.337Z,10.56
2019-05-09T07:48:43.365Z,10.53
2019-05-09T07:49:43.326Z,10.71
2019-05-09T07:50:43.343Z,10.64
2019-05-09T07:51:43.336Z,10.76
2019-05-09T07:52:43.282Z,10.87
2019-05-09T07:53:43.364Z,10.90
2019-05-09T07:54:43.346Z,11.07
2019-05-09T07:55:43.259Z,11.27
2019-05-09T07:56:43.338Z,11.15
2019-05-09T07:57:47.558Z,11.23
2019-05-09T07:58:44.214Z,11.27
2019-05-09T07:59:43.210Z,11.37
2019-05-09T08:00:43.253Z,11.36
2019-05-09T08:01:43.198Z,11.26
2019-05-09T08:02:43.178Z,11.19
2019-05-09T08:03:43.158Z,11.17
2019-05-09T08:04:43.151Z,11.19
2019-05-09T08:05:43.162Z,11.25
2019-05-09T08:06:43.136Z,11.22
2019-05-09T08:07:43.330Z,11.27
2019-05-09T08:08:43.107Z,11.26
2019-05-09T08:09:43.097Z,11.32
2019-05-09T08:10:43.093Z,11.33
2019-05-09T08:11:43.102Z,11.26
2019-05-09T08:12:43.058Z,11.27
2019-05-09T08:13:43.053Z,11.35
2019-05-09T08:14:43.037Z,11.57
2019-05-09T08:15:43.042Z,11.63
2019-05-09T08:16:43.029Z,11.66
2019-05-09T08:17:43.046Z,11.78
2019-05-09T08:18:42.998Z,11.81
2019-05-09T08:19:42.985Z,11.91
2019-05-09T08:20:42.995Z,11.68
2019-05-09T08:21:42.967Z,11.70
2019-05-09T08:22:50.728Z,11.73
2019-05-09T08:23:43.970Z,11.62
2019-05-09T08:24:42.933Z,11.48
2019-05-09T08:25:42.939Z,11.65
2019-05-09T08:26:42.929Z,11.65
2019-05-09T08:27:42.983Z,11.65
2019-05-09T08:28:43.108Z,11.70
2019-05-09T08:29:42.918Z,11.63
2019-05-09T08:30:42.867Z,11.75
2019-05-09T08:31:45.495Z,11.88
2019-05-09T08:32:42.852Z,11.95
2019-05-09T08:33:42.840Z,12.25
2019-05-09T08:34:42.835Z,12.22
2019-05-09T08:35:42.848Z,12.24
2019-05-09T08:36:42.809Z,12.09
2019-05-09T08:37:42.815Z,12.06
2019-05-09T08:38:42.798Z,11.91
2019-05-09T08:39:42.775Z,12.02
2019-05-09T08:40:42.765Z,11.94
2019-05-09T08:41:42.762Z,12.09
2019-05-09T08:42:42.760Z,12.22
2019-05-09T08:43:42.748Z,12.35
2019-05-09T08:44:42.715Z,12.35
2019-05-09T08:45:42.713Z,12.53
2019-05-09T08:46:42.712Z,12.42
2019-05-09T08:47:42.684Z,12.40
2019-05-09T08:48:42.712Z,12.21
2019-05-09T08:49:42.691Z,12.21
2019-05-09T08:50:42.658Z,12.17
2019-05-09T08:51:56.037Z,12.28
2019-05-09T08:52:43.628Z,12.24
2019-05-09T08:53:42.623Z,12.37
2019-05-09T08:54:42.637Z,12.39
2019-05-09T08:55:42.617Z,12.68
2019-05-09T08:56:42.604Z,12.78
2019-05-09T08:57:42.582Z,12.61
2019-05-09T08:58:42.578Z,12.50
2019-05-09T08:59:42.558Z,12.86
2019-05-09T09:00:42.560Z,12.95
2019-05-09T09:02:08.394Z,12.76
2019-05-09T09:02:43.521Z,12.79
2019-05-09T09:03:42.517Z,12.79
2019-05-09T09:04:42.512Z,13.12
2019-05-09T09:05:43.379Z,12.97
2019-05-09T09:06:42.495Z,12.94
2019-05-09T09:07:42.499Z,13.28
2019-05-09T09:08:42.471Z,13.35
2019-05-09T09:09:42.463Z,13.23
2019-05-09T09:10:42.443Z,13.08
2019-05-09T09:11:42.427Z,12.95
2019-05-09T09:12:42.420Z,13.11
2019-05-09T09:13:42.435Z,12.86
2019-05-09T09:14:42.406Z,12.64
2019-05-09T09:16:11.725Z,12.80
2019-05-09T09:16:43.375Z,12.95
2019-05-09T09:17:42.376Z,13.19
2019-05-09T09:18:42.356Z,13.59
2019-05-09T09:19:42.358Z,13.62
2019-05-09T09:20:42.337Z,13.54
2019-05-09T09:21:42.342Z,13.49
2019-05-09T09:22:42.336Z,13.25
2019-05-09T09:23:46.726Z,13.05
2019-05-09T09:24:43.302Z,12.83
2019-05-09T09:25:42.285Z,12.67
2019-05-09T09:26:42.269Z,12.95
2019-05-09T09:27:42.261Z,13.72
2019-05-09T09:28:42.261Z,14.22
2019-05-09T09:29:42.258Z,14.97
2019-05-09T09:30:42.249Z,14.86
2019-05-09T09:31:42.217Z,14.97
2019-05-09T09:32:42.217Z,14.60
2019-05-09T09:33:42.197Z,14.03
2019-05-09T09:34:42.209Z,13.71
2019-05-09T09:35:42.169Z,14.45
2019-05-09T09:36:42.198Z,14.11
2019-05-09T09:37:48.322Z,13.81
2019-05-09T09:38:43.141Z,13.67
2019-05-09T09:39:44.848Z,13.57
2019-05-09T09:40:42.114Z,13.25
2019-05-09T09:41:42.106Z,13.37
2019-05-09T09:42:42.137Z,13.47
2019-05-09T09:43:42.091Z,13.57
2019-05-09T09:44:42.071Z,13.71
2019-05-09T09:45:42.064Z,14.63
2019-05-09T09:46:42.051Z,15.55
2019-05-09T09:47:42.052Z,15.09
2019-05-09T09:48:42.056Z,14.73
2019-05-09T09:49:42.015Z,14.37
2019-05-09T09:50:42.007Z,14.28
2019-05-09T09:51:42.000Z,14.20
2019-05-09T09:52:42.330Z,13.89
2019-05-09T09:53:41.972Z,13.70
2019-05-09T09:54:41.982Z,13.62
2019-05-09T09:55:41.953Z,13.53
2019-05-09T09:56:41.945Z,13.31
2019-05-09T09:57:41.951Z,13.22
2019-05-09T09:58:41.923Z,12.86
2019-05-09T09:59:41.923Z,12.64
2019-05-09T10:00:41.911Z,12.53
2019-05-09T10:01:41.910Z,12.45
2019-05-09T10:02:41.882Z,12.36
2019-05-09T10:03:41.896Z,12.36
2019-05-09T10:04:41.884Z,12.37
2019-05-09T10:05:41.851Z,12.35
2019-05-09T10:06:41.877Z,12.25
2019-05-09T10:07:41.822Z,12.20
2019-05-09T10:08:41.817Z,12.24
2019-05-09T10:09:41.815Z,12.21
2019-05-09T10:10:41.797Z,12.22
2019-05-09T10:11:41.784Z,12.35
2019-05-09T10:12:44.411Z,12.46
2019-05-09T10:13:41.799Z,12.49
2019-05-09T10:14:41.746Z,12.60
2019-05-09T10:15:41.748Z,12.76
2019-05-09T10:16:41.738Z,12.94
2019-05-09T10:17:41.721Z,13.08
2019-05-09T10:18:41.732Z,13.25
2019-05-09T10:19:41.695Z,13.31
2019-05-09T10:20:41.683Z,13.33
2019-05-09T10:21:41.679Z,13.41
2019-05-09T10:22:45.837Z,13.33
2019-05-09T10:23:42.664Z,13.35
2019-05-09T10:24:41.655Z,13.37
2019-05-09T10:25:41.650Z,13.35
2019-05-09T10:26:41.668Z,13.47
2019-05-09T10:27:41.619Z,13.44
2019-05-09T10:28:45.280Z,13.50
2019-05-09T10:29:41.591Z,13.49
2019-05-09T10:30:41.576Z,13.53
2019-05-09T10:31:41.587Z,13.60
2019-05-09T10:32:41.570Z,13.72
2019-05-09T10:33:41.561Z,13.70
2019-05-09T10:34:41.753Z,13.56
2019-05-09T10:35:41.532Z,13.27
2019-05-09T10:36:41.521Z,13.20
2019-05-09T10:37:41.539Z,13.13
2019-05-09T10:38:41.552Z,12.98
2019-05-09T10:39:41.481Z,13.05
2019-05-09T10:40:41.474Z,13.04
2019-05-09T10:41:41.462Z,12.93
2019-05-09T10:42:41.446Z,12.86
2019-05-09T10:43:41.445Z,12.85
2019-05-09T10:44:41.448Z,12.90
2019-05-09T10:45:41.423Z,13.04
2019-05-09T10:46:52.576Z,12.94
2019-05-09T10:47:42.398Z,13.03
2019-05-09T10:48:41.397Z,13.04
2019-05-09T10:49:41.379Z,12.98
2019-05-09T10:50:44.298Z,13.01
2019-05-09T10:51:41.357Z,12.98
2019-05-09T10:52:41.339Z,12.95
2019-05-09T10:53:41.332Z,12.80
2019-05-09T10:54:41.334Z,12.82
2019-05-09T10:55:41.344Z,12.93
2019-05-09T10:56:41.322Z,12.98
2019-05-09T10:57:42.849Z,13.25
2019-05-09T10:58:41.275Z,13.56
2019-05-09T10:59:41.268Z,13.77
2019-05-09T11:00:41.275Z,14.04
2019-05-09T11:01:41.274Z,14.15
2019-05-09T11:02:41.241Z,14.23
2019-05-09T11:03:41.233Z,14.18
2019-05-09T11:04:44.233Z,14.05
2019-05-09T11:05:42.213Z,13.83
2019-05-09T11:06:41.188Z,13.63
2019-05-09T11:07:41.178Z,13.54
2019-05-09T11:08:41.172Z,13.47
2019-05-09T11:09:41.163Z,13.41
2019-05-09T11:10:41.172Z,13.44
2019-05-09T11:11:41.329Z,13.42
2019-05-09T11:12:41.128Z,13.27
2019-05-09T11:13:41.114Z,13.27
2019-05-09T11:14:41.108Z,13.16
2019-05-09T11:15:41.135Z,13.13
2019-05-09T11:16:46.154Z,13.12
2019-05-09T11:17:42.116Z,13.08
2019-05-09T11:18:41.061Z,13.20
2019-05-09T11:19:41.061Z,13.37
2019-05-09T11:20:41.049Z,13.38
2019-05-09T11:21:41.033Z,13.33
2019-05-09T11:22:41.085Z,13.60
2019-05-09T11:23:41.017Z,13.57
2019-05-09T11:24:46.549Z,13.50
2019-05-09T11:25:41.980Z,13.44
2019-05-09T11:26:40.975Z,13.30
2019-05-09T11:27:40.969Z,13.27
2019-05-09T11:28:40.956Z,13.15
2019-05-09T11:29:40.965Z,13.13
2019-05-09T11:30:40.949Z,12.98
2019-05-09T11:31:40.924Z,13.11
2019-05-09T11:32:40.931Z,13.18
2019-05-09T11:33:40.897Z,13.31
2019-05-09T11:34:40.900Z,13.37
2019-05-09T11:35:40.882Z,13.54
2019-05-09T11:36:40.886Z,13.57
2019-05-09T11:37:40.897Z,13.68
2019-05-09T11:38:43.863Z,13.72
2019-05-09T11:39:42.295Z,13.74
2019-05-09T11:40:40.826Z,13.83
2019-05-09T11:41:40.835Z,13.68
2019-05-09T11:42:40.804Z,13.65
2019-05-09T11:43:40.790Z,13.62
2019-05-09T11:44:40.795Z,13.52
2019-05-09T11:45:40.775Z,13.54
2019-05-09T11:46:40.757Z,13.28
2019-05-09T11:47:46.115Z,13.31
2019-05-09T11:48:41.753Z,13.31
2019-05-09T11:49:40.742Z,13.27
2019-05-09T11:50:40.762Z,13.49
2019-05-09T11:51:40.702Z,13.72
2019-05-09T11:52:40.696Z,13.72
2019-05-09T11:53:40.681Z,13.95
2019-05-09T11:54:40.680Z,14.03
2019-05-09T11:55:43.177Z,14.05
2019-05-09T11:56:40.687Z,14.12
2019-05-09T11:57:40.639Z,14.32
2019-05-09T11:58:40.631Z,14.45
2019-05-09T11:59:40.639Z,15.15
2019-05-09T12:00:40.613Z,15.51
2019-05-09T12:01:40.602Z,15.44
2019-05-09T12:02:40.598Z,15.43
2019-05-09T12:03:40.573Z,15.36
2019-05-09T12:04:40.564Z,15.22
2019-05-09T12:05:40.585Z,15.25
2019-05-09T12:06:40.549Z,15.61
2019-05-09T12:07:40.532Z,15.92
2019-05-09T12:08:40.529Z,16.08
2019-05-09T12:09:40.508Z,16.94
2019-05-09T12:10:40.506Z,16.72
2019-05-09T12:11:44.448Z,17.38
2019-05-09T12:12:40.478Z,18.26
2019-05-09T12:13:40.481Z,18.75
2019-05-09T12:14:40.488Z,19.21
2019-05-09T12:15:40.469Z,19.70
2019-05-09T12:16:40.452Z,19.36
2019-05-09T12:17:56.058Z,18.38
2019-05-09T12:18:41.413Z,17.56
2019-05-09T12:19:40.418Z,17.05
2019-05-09T12:20:40.735Z,16.61
2019-05-09T12:21:47.653Z,16.13
2019-05-09T12:22:41.396Z,15.61
2019-05-09T12:23:40.375Z,15.31
2019-05-09T12:24:40.389Z,15.04
2019-05-09T12:25:40.432Z,14.69
2019-05-09T12:26:40.338Z,14.41
2019-05-09T12:27:40.342Z,14.26
2019-05-09T12:28:40.343Z,14.11
2019-05-09T12:29:40.305Z,14.15
2019-05-09T12:30:40.294Z,14.10
2019-05-09T12:31:40.304Z,14.30
2019-05-09T12:32:40.265Z,14.59
2019-05-09T12:33:40.271Z,14.92
2019-05-09T12:34:40.250Z,15.39
2019-05-09T12:35:40.247Z,15.44
2019-05-09T12:36:40.253Z,15.39
2019-05-09T12:37:40.213Z,15.47
2019-05-09T12:38:40.216Z,15.76
2019-05-09T12:39:40.194Z,15.94
2019-05-09T12:40:40.195Z,16.13
2019-05-09T12:41:40.167Z,16.08
2019-05-09T12:42:40.191Z,15.90
2019-05-09T12:43:40.173Z,15.79
2019-05-09T12:44:40.194Z,15.55
2019-05-09T12:45:40.211Z,15.43
2019-05-09T12:46:40.198Z,15.27
2019-05-09T12:47:40.123Z,15.11
2019-05-09T12:48:40.139Z,14.84
2019-05-09T12:49:40.176Z,14.62
2019-05-09T12:50:40.111Z,14.48
2019-05-09T12:51:40.122Z,14.47
2019-05-09T12:52:40.101Z,14.36
2019-05-09T12:53:40.039Z,14.45
2019-05-09T12:54:40.031Z,14.37
2019-05-09T12:55:40.037Z,14.44
2019-05-09T12:56:40.020Z,14.58
2019-05-09T12:57:40.003Z,14.62
2019-05-09T12:58:39.986Z,14.65
2019-05-09T12:59:48.549Z,14.89
2019-05-09T13:00:40.981Z,15.02
2019-05-09T13:01:41.359Z,15.02
2019-05-09T13:02:39.964Z,15.21
2019-05-09T13:03:39.968Z,15.35
2019-05-09T13:04:39.921Z,15.33
2019-05-09T13:05:39.931Z,15.43
2019-05-09T13:06:39.905Z,15.42